Time;durP1;ratioP1;P1;durP2;ratioP2;P2;SDS_P1;SDS_P2;PMS_P1;PMS_P2;Temp;Humidity;BMP_temperature;BMP_pressure;BME280_temperature;BME280_humidity;BME280_pressure;Samples;Min_cycle;Max_cycle;Signal;HPM_P1;HPM_P2
2022/02/03 00:00:21;;;;;;;;;;;21.70;45.60;;;;;;5157159;27;19930;-44
2022/02/03 00:03:03;;;;;;;;;;;21.70;45.60;;;;;;5158175;27;20301;-40
2022/02/03 00:05:41;;;;;;;;;;;21.70;45.60;;;;;;5148236;27;20267;-44
2022/02/03 00:08:36;;;;;;;;;;;21.70;45.60;;;;;;5136432;27;20387;-42
2022/02/03 00:24:38;;;;;;;;;;;21.70;45.60;;;;;;5157459;27;19944;-47
2022/02/03 00:27:19;;;;;;;;;;;21.70;45.60;;;;;;5156387;27;19923;-43
2022/02/03 00:32:40;;;;;;;;;;;21.70;45.60;;;;;;5157569;27;19966;-44
2022/02/03 00:48:34;;;;;;;;;;;21.70;45.60;;;;;;5156965;27;19963;-42
2022/02/03 00:51:02;;;;;;;;;;;21.70;45.60;;;;;;5157267;27;19931;-42
2022/02/03 00:53:29;;;;;;;;;;;21.60;45.70;;;;;;5156672;27;19970;-45
2022/02/03 00:56:00;;;;;;;;;;;21.60;45.60;;;;;;5156657;27;19923;-40
2022/02/03 00:58:27;;;;;;;;;;;21.60;45.60;;;;;;5155708;27;19930;-43
2022/02/03 01:00:58;;;;;;;;;;;21.60;45.60;;;;;;5155936;27;19923;-42
2022/02/03 01:03:26;;;;;;;;;;;21.60;45.60;;;;;;5156684;27;19923;-42
2022/02/03 01:05:56;;;;;;;;;;;21.60;45.60;;;;;;5143424;27;20462;-39
2022/02/03 01:08:24;;;;;;;;;;;21.60;45.60;;;;;;5135801;27;19970;-43
2022/02/03 01:11:01;;;;;;;;;;;21.60;45.60;;;;;;5136021;27;20022;-41
2022/02/03 01:13:46;;;;;;;;;;;21.60;45.60;;;;;;5152213;27;19923;-45
2022/02/03 01:33:38;;;;;;;;;;;21.60;45.60;;;;;;5155279;27;20255;-44
2022/02/03 01:45:59;;;;;;;;;;;21.60;45.60;;;;;;5155103;27;19923;-41
2022/02/03 01:53:49;;;;;;;;;;;21.60;45.60;;;;;;5155767;27;19924;-44
2022/02/03 01:56:17;;;;;;;;;;;21.50;45.60;;;;;;5155535;27;20383;-41
2022/02/03 01:58:47;;;;;;;;;;;21.50;45.60;;;;;;5140313;27;20287;-41
2022/02/03 02:01:21;;;;;;;;;;;21.50;45.60;;;;;;5144845;27;19923;-41
2022/02/03 02:03:51;;;;;;;;;;;21.50;45.60;;;;;;5155576;27;20030;-45
2022/02/03 02:06:37;;;;;;;;;;;21.50;45.60;;;;;;5138792;27;19971;-42
2022/02/03 02:09:07;;;;;;;;;;;21.50;45.60;;;;;;5134719;27;19931;-43
2022/02/03 02:12:01;;;;;;;;;;;21.50;45.60;;;;;;5134761;27;20022;-43
2022/02/03 02:37:35;;;;;;;;;;;21.50;45.60;;;;;;5091515;28;19973;-42
2022/02/03 02:42:38;;;;;;;;;;;21.50;45.60;;;;;;5090776;28;19928;-41
2022/02/03 02:45:05;;;;;;;;;;;21.50;45.60;;;;;;5091470;28;19982;-43
2022/02/03 02:47:51;;;;;;;;;;;21.50;46.20;;;;;;5090549;28;20393;-46
2022/02/03 02:50:41;;;;;;;;;;;21.50;45.60;;;;;;5091429;28;19935;-40
2022/02/03 02:53:22;;;;;;;;;;;21.50;45.60;;;;;;5091435;28;19931;-41
2022/02/03 02:56:35;;;;;;;;;;;21.50;45.60;;;;;;5091294;28;20006;-45
2022/02/03 03:29:00;;;;;;;;;;;21.50;45.60;;;;;;5071124;28;19967;-42
2022/02/03 03:29:42;;;;;;;;;;;21.40;45.60;;;;;;5153966;27;20270;-42
2022/02/03 03:32:30;;;;;;;;;;;21.40;45.60;;;;;;5153951;27;20080;-43
2022/02/03 03:37:36;;;;;;;;;;;21.40;45.60;;;;;;5154892;27;19923;-41
2022/02/03 03:40:04;;;;;;;;;;;21.40;45.60;;;;;;5154914;27;20294;-43
2022/02/03 03:42:32;;;;;;;;;;;21.40;45.60;;;;;;5154888;27;19927;-42
2022/02/03 03:45:00;;;;;;;;;;;21.40;45.60;;;;;;5157433;27;19923;-40
2022/02/03 03:47:31;;;;;;;;;;;21.40;45.70;;;;;;5148343;27;20445;-43
2022/02/03 03:50:01;;;;;;;;;;;21.40;45.60;;;;;;5137454;27;19976;-45
2022/02/03 03:52:29;;;;;;;;;;;21.40;45.70;;;;;;5137510;27;19924;-42
2022/02/03 03:55:18;;;;;;;;;;;21.40;45.70;;;;;;5137466;27;19927;-43
2022/02/03 04:01:05;;;;;;;;;;;21.40;45.70;;;;;;5094406;28;19924;-44
2022/02/03 04:38:23;;;;;;;;;;;21.30;45.60;;;;;;5109652;28;20010;-41
2022/02/03 04:43:43;;;;;;;;;;;21.30;45.60;;;;;;5116427;28;19924;-41
2022/02/03 04:52:48;;;;;;;;;;;21.30;45.60;;;;;;5136320;27;19923;-43
2022/02/03 04:55:12;;;;;;;;;;;21.30;45.60;;;;;;5135799;27;19972;-40
2022/02/03 05:06:18;;;;;;;;;;;21.30;45.60;;;;;;5123468;27;20003;-42
2022/02/03 05:09:05;;;;;;;;;;;21.30;45.60;;;;;;5115350;28;19975;-41
2022/02/03 05:12:03;;;;;;;;;;;21.30;45.60;;;;;;5115352;27;20375;-42
2022/02/03 05:14:57;;;;;;;;;;;21.30;45.60;;;;;;5119068;27;19924;-43
2022/02/03 05:20:48;;;;;;;;;;;21.30;45.60;;;;;;5135648;27;20366;-42
2022/02/03 05:35:08;;;;;;;;;;;21.30;45.60;;;;;;5129758;27;19924;-43
2022/02/03 05:49:05;;;;;;;;;;;21.30;45.60;;;;;;5134682;27;19923;-42
2022/02/03 06:02:52;;;;;;;;;;;21.30;45.60;;;;;;5134851;27;19978;-42
2022/02/03 06:08:26;;;;;;;;;;;21.30;45.60;;;;;;5085626;28;20029;-42
2022/02/03 06:22:42;;;;;;;;;;;21.30;45.60;;;;;;5091540;28;20007;-43
2022/02/03 06:27:54;;;;;;;;;;;21.20;45.50;;;;;;5091520;28;19931;-41
2022/02/03 06:30:21;;;;;;;;;;;21.20;45.50;;;;;;5090636;28;20395;-40
2022/02/03 06:32:48;;;;;;;;;;;21.20;45.50;;;;;;5091533;28;20273;-44
2022/02/03 06:35:17;;;;;;;;;;;21.20;45.50;;;;;;5073604;28;19925;-43
2022/02/03 06:37:47;;;;;;;;;;;21.20;45.50;;;;;;5071311;28;20039;-42
2022/02/03 06:40:15;;;;;;;;;;;21.20;45.50;;;;;;5071224;28;19935;-43
2022/02/03 06:42:44;;;;;;;;;;;21.20;45.50;;;;;;5071243;28;20042;-41
2022/02/03 06:45:29;;;;;;;;;;;21.20;45.50;;;;;;5070638;28;19962;-44
2022/02/03 06:48:13;;;;;;;;;;;21.20;46.10;;;;;;5071111;28;19967;-43
2022/02/03 06:50:52;;;;;;;;;;;21.20;45.50;;;;;;5091330;28;20303;-42
2022/02/03 06:53:24;;;;;;;;;;;21.20;45.50;;;;;;5113867;28;19977;-40
2022/02/03 06:56:05;;;;;;;;;;;21.20;45.50;;;;;;5113304;28;19997;-41
2022/02/03 06:58:53;;;;;;;;;;;21.20;45.50;;;;;;5114135;28;19924;-40
2022/02/03 07:01:31;;;;;;;;;;;21.30;45.60;;;;;;5123229;28;20292;-48
2022/02/03 07:04:02;;;;;;;;;;;21.20;45.50;;;;;;5133763;27;19962;-42
2022/02/03 07:06:30;;;;;;;;;;;21.20;45.50;;;;;;5116532;27;19966;-41
2022/02/03 07:09:00;;;;;;;;;;;21.20;45.40;;;;;;5113545;28;20440;-43
2022/02/03 07:11:26;;;;;;;;;;;21.30;45.50;;;;;;5113540;28;19937;-42
2022/02/03 07:13:53;;;;;;;;;;;21.20;45.40;;;;;;5113768;28;20014;-44
2022/02/03 07:16:20;;;;;;;;;;;21.30;45.50;;;;;;5121776;28;19949;-44
2022/02/03 07:18:47;;;;;;;;;;;21.30;45.50;;;;;;5145778;27;20006;-43
2022/02/03 07:21:14;;;;;;;;;;;21.30;45.50;;;;;;5158464;27;19927;-41
2022/02/03 07:23:41;;;;;;;;;;;21.30;45.50;;;;;;5158376;27;19968;-45
2022/02/03 07:26:08;;;;;;;;;;;21.30;45.40;;;;;;5158408;27;19932;-42
2022/02/03 07:28:35;;;;;;;;;;;21.30;45.40;;;;;;5158676;27;19981;-42
2022/02/03 07:31:03;;;;;;;;;;;21.30;45.40;;;;;;5153556;27;19927;-42
2022/02/03 07:33:32;;;;;;;;;;;21.30;45.40;;;;;;5137928;27;19923;-44
2022/02/03 07:35:59;;;;;;;;;;;21.30;45.50;;;;;;5154717;27;20427;-44
2022/02/03 07:38:26;;;;;;;;;;;21.30;45.40;;;;;;5158294;27;19967;-43
2022/02/03 07:40:53;;;;;;;;;;;21.30;45.40;;;;;;5158274;27;19923;-41
2022/02/03 07:43:21;;;;;;;;;;;21.30;45.40;;;;;;5158257;27;19930;-44
2022/02/03 07:45:48;;;;;;;;;;;21.30;45.40;;;;;;5157491;27;20002;-48
2022/02/03 07:48:20;;;;;;;;;;;21.30;45.40;;;;;;5158344;27;19974;-45
2022/02/03 07:50:48;;;;;;;;;;;21.30;45.40;;;;;;5157117;27;19927;-41
2022/02/03 07:53:15;;;;;;;;;;;21.30;45.30;;;;;;5157786;27;20439;-43
2022/02/03 07:55:42;;;;;;;;;;;21.30;45.30;;;;;;5157834;27;19999;-44
2022/02/03 07:58:09;;;;;;;;;;;21.30;45.30;;;;;;5158173;27;20332;-48
2022/02/03 08:00:36;;;;;;;;;;;21.30;45.30;;;;;;5157840;27;19976;-43
2022/02/03 08:03:12;;;;;;;;;;;21.30;45.30;;;;;;5137517;27;19923;-47
2022/02/03 08:05:41;;;;;;;;;;;21.30;45.20;;;;;;5148072;27;20010;-43
2022/02/03 08:08:21;;;;;;;;;;;21.30;45.20;;;;;;5158019;27;19945;-42
2022/02/03 08:10:51;;;;;;;;;;;21.30;45.20;;;;;;5158067;27;19971;-42
2022/02/03 08:18:37;;;;;;;;;;;21.40;45.20;;;;;;5136688;27;19927;-47
2022/02/03 08:21:07;;;;;;;;;;;21.40;45.20;;;;;;5150859;27;20079;-41
2022/02/03 08:29:08;;;;;;;;;;;21.40;45.20;;;;;;5157143;27;19923;-42
2022/02/03 08:31:43;;;;;;;;;;;21.40;45.10;;;;;;5156089;27;19974;-44
2022/02/03 08:34:15;;;;;;;;;;;21.40;45.10;;;;;;5157539;27;19997;-43
2022/02/03 08:36:42;;;;;;;;;;;21.40;45.10;;;;;;5156824;27;19923;-43
2022/02/03 08:39:11;;;;;;;;;;;21.40;45.20;;;;;;5157477;27;19974;-48
2022/02/03 08:41:38;;;;;;;;;;;21.40;45.10;;;;;;5157065;27;19972;-42
2022/02/03 08:44:05;;;;;;;;;;;21.40;45.00;;;;;;5157015;27;20366;-47
2022/02/03 08:46:32;;;;;;;;;;;21.40;45.00;;;;;;5156193;27;19927;-43
2022/02/03 08:49:02;;;;;;;;;;;21.40;45.00;;;;;;5157082;27;19923;-43
2022/02/03 08:51:31;;;;;;;;;;;21.40;45.00;;;;;;5156619;27;19966;-40
2022/02/03 08:54:06;;;;;;;;;;;21.40;45.00;;;;;;5156997;27;19967;-42
2022/02/03 08:59:19;;;;;;;;;;;21.40;44.90;;;;;;5157164;27;20014;-46
2022/02/03 09:38:25;;;;;;;;;;;21.60;44.60;;;;;;5136975;27;20309;-41
2022/02/03 09:40:32;;;;;;;;;;;21.60;44.50;;;;;;5124020;27;19948;-43
2022/02/03 09:54:15;;;;;;;;;;;21.70;44.40;;;;;;5155929;27;19958;-44
2022/02/03 09:59:34;;;;;;;;;;;21.70;44.30;;;;;;5155933;27;20010;-42
2022/02/03 10:02:09;;;;;;;;;;;21.70;44.30;;;;;;5139223;27;20320;-41
2022/02/03 10:04:53;;;;;;;;;;;21.70;44.30;;;;;;5136640;27;19996;-43
2022/02/03 10:07:24;;;;;;;;;;;21.70;44.20;;;;;;5154863;27;20308;-44
2022/02/03 10:09:52;;;;;;;;;;;21.80;44.30;;;;;;5155735;27;20011;-42
2022/02/03 10:12:33;;;;;;;;;;;21.80;44.80;;;;;;5155348;27;20386;-43
2022/02/03 10:15:01;;;;;;;;;;;21.80;44.20;;;;;;5155267;27;19924;-40
2022/02/03 10:17:35;;;;;;;;;;;21.80;44.20;;;;;;5151945;27;20519;-46
2022/02/03 10:20:09;;;;;;;;;;;21.80;44.10;;;;;;5134442;27;20022;-45
2022/02/03 10:22:54;;;;;;;;;;;21.80;44.10;;;;;;5133813;27;20379;-44
2022/02/03 10:25:27;;;;;;;;;;;21.80;44.10;;;;;;5134738;27;19927;-40
2022/02/03 10:28:21;;;;;;;;;;;21.80;44.10;;;;;;5134775;27;19923;-39
2022/02/03 10:30:56;;;;;;;;;;;21.80;44.00;;;;;;5130340;27;20342;-43
2022/02/03 10:33:34;;;;;;;;;;;21.80;44.00;;;;;;5142181;27;19930;-39
2022/02/03 10:36:10;;;;;;;;;;;21.80;44.00;;;;;;5154931;27;19923;-41
2022/02/03 10:42:06;;;;;;;;;;;21.80;44.00;;;;;;5155441;27;19923;-42
2022/02/03 10:44:52;;;;;;;;;;;21.80;44.00;;;;;;5152347;27;19962;-40
2022/02/03 10:50:21;;;;;;;;;;;21.90;44.00;;;;;;5154318;27;20327;-44
2022/02/03 10:58:23;;;;;;;;;;;21.90;44.50;;;;;;5159445;27;20278;-41
2022/02/03 11:03:35;;;;;;;;;;;22.00;43.90;;;;;;5154150;27;19949;-43
2022/02/03 11:09:46;;;;;;;;;;;22.00;43.90;;;;;;5138178;27;20390;-42
2022/02/03 11:11:52;;;;;;;;;;;22.00;43.70;;;;;;5127481;27;19977;-41
2022/02/03 11:14:19;;;;;;;;;;;22.00;43.70;;;;;;5138002;27;19972;-43
2022/02/03 11:16:46;;;;;;;;;;;22.10;43.70;;;;;;5138293;27;20006;-44
2022/02/03 11:19:16;;;;;;;;;;;22.10;43.60;;;;;;5148059;27;19923;-42
2022/02/03 11:21:48;;;;;;;;;;;22.10;43.60;;;;;;5157826;27;19966;-44
2022/02/03 11:24:24;;;;;;;;;;;22.10;43.60;;;;;;5158789;27;20335;-42
2022/02/03 11:30:14;;;;;;;;;;;22.10;43.50;;;;;;5158538;27;19930;-41
2022/02/03 11:33:22;;;;;;;;;;;22.10;43.50;;;;;;5159017;27;20025;-42
2022/02/03 11:39:08;;;;;;;;;;;22.20;43.60;;;;;;5150828;27;19927;-41
2022/02/03 11:52:58;;;;;;;;;;;22.20;43.40;;;;;;5157290;27;20282;-41
2022/02/03 12:03:51;;;;;;;;;;;22.30;43.40;;;;;;5156007;27;19923;-43
2022/02/03 12:12:44;;;;;;;;;;;22.30;43.30;;;;;;5137354;27;19970;-42
2022/02/03 12:21:03;;;;;;;;;;;22.30;43.40;;;;;;5152938;27;20385;-43
2022/02/03 12:23:38;;;;;;;;;;;22.30;43.40;;;;;;5156286;27;19923;-43
2022/02/03 12:26:11;;;;;;;;;;;22.30;43.40;;;;;;5157408;27;19978;-44
2022/02/03 12:31:59;;;;;;;;;;;22.30;43.40;;;;;;5157486;27;20490;-41
2022/02/03 12:40:02;;;;;;;;;;;22.40;43.40;;;;;;5093178;28;19967;-43
2022/02/03 12:42:54;;;;;;;;;;;22.40;43.40;;;;;;5093545;28;19924;-40
2022/02/03 12:45:26;;;;;;;;;;;22.40;43.40;;;;;;5093468;28;19977;-46
2022/02/03 12:48:04;;;;;;;;;;;22.40;43.40;;;;;;5093435;28;19924;-42
2022/02/03 12:50:35;;;;;;;;;;;22.40;43.40;;;;;;5092657;28;19940;-41
2022/02/03 12:53:03;;;;;;;;;;;22.40;43.40;;;;;;5092280;28;19938;-44
2022/02/03 12:55:32;;;;;;;;;;;22.40;43.30;;;;;;5093105;28;20337;-44
2022/02/03 12:58:09;;;;;;;;;;;22.40;43.30;;;;;;5093009;28;19954;-50
2022/02/03 13:00:43;;;;;;;;;;;22.40;43.30;;;;;;5093073;28;19928;-43
2022/02/03 13:03:36;;;;;;;;;;;22.40;43.30;;;;;;5093188;28;19924;-41
2022/02/03 13:06:10;;;;;;;;;;;22.50;43.40;;;;;;5092054;28;19961;-46
2022/02/03 13:08:40;;;;;;;;;;;22.50;43.30;;;;;;5092089;28;19928;-46
2022/02/03 13:11:22;;;;;;;;;;;22.50;43.30;;;;;;5092939;28;20402;-44
2022/02/03 13:16:55;;;;;;;;;;;22.50;43.30;;;;;;5125705;27;19923;-42
2022/02/03 13:22:35;;;;;;;;;;;22.50;43.40;;;;;;5052445;28;19956;-45
2022/02/03 13:27:41;;;;;;;;;;;22.50;43.30;;;;;;5092466;28;19924;-44
2022/02/03 13:30:27;;;;;;;;;;;22.50;43.30;;;;;;5092411;28;19924;-41
2022/02/03 13:32:58;;;;;;;;;;;22.50;43.30;;;;;;5092668;28;19928;-41
2022/02/03 13:35:43;;;;;;;;;;;22.50;43.40;;;;;;5082750;28;19925;-42
2022/02/03 13:41:15;;;;;;;;;;;22.50;43.40;;;;;;5032299;28;19936;-41
2022/02/03 13:43:42;;;;;;;;;;;22.50;43.40;;;;;;5032146;28;19924;-45
2022/02/03 13:46:11;;;;;;;;;;;22.50;43.50;;;;;;5032235;28;19925;-45
2022/02/03 13:48:40;;;;;;;;;;;22.50;43.50;;;;;;5015661;28;20031;-42
2022/02/03 13:51:11;;;;;;;;;;;22.50;43.50;;;;;;5018321;28;19930;-40
2022/02/03 13:53:47;;;;;;;;;;;22.50;43.60;;;;;;5014800;28;19932;-42
2022/02/03 14:28:41;;;;;;;;;;;22.50;43.70;;;;;;5155521;27;19929;-43
2022/02/03 14:31:09;;;;;;;;;;;22.50;43.60;;;;;;5155554;27;20333;-42
2022/02/03 14:33:37;;;;;;;;;;;22.50;43.70;;;;;;5155176;27;19927;-42
2022/02/03 14:36:11;;;;;;;;;;;22.50;43.70;;;;;;5154380;27;20290;-42
2022/02/03 14:41:25;;;;;;;;;;;22.50;43.70;;;;;;5134274;27;19923;-42
2022/02/03 14:43:53;;;;;;;;;;;22.50;43.70;;;;;;5134780;28;19969;-40
2022/02/03 14:46:27;;;;;;;;;;;22.50;43.70;;;;;;5134415;28;19934;-42
2022/02/03 14:48:55;;;;;;;;;;;22.50;43.80;;;;;;5134281;28;19924;-44
2022/02/03 14:51:27;;;;;;;;;;;22.50;43.70;;;;;;5134487;27;19965;-43
2022/02/03 14:59:15;;;;;;;;;;;22.50;43.80;;;;;;5134658;28;20283;-43
2022/02/03 15:01:42;;;;;;;;;;;22.50;43.80;;;;;;5134285;28;19924;-40
2022/02/03 15:04:13;;;;;;;;;;;22.50;43.80;;;;;;5134525;28;19923;-43
2022/02/03 15:06:51;;;;;;;;;;;22.50;43.90;;;;;;5152722;27;19930;-48
2022/02/03 15:09:33;;;;;;;;;;;22.50;44.50;;;;;;5152623;27;20362;-42
2022/02/03 15:12:08;;;;;;;;;;;22.40;43.90;;;;;;5134418;28;19962;-42
2022/02/03 15:14:40;;;;;;;;;;;22.40;43.90;;;;;;5135180;28;19927;-40
2022/02/03 15:17:07;;;;;;;;;;;22.40;44.00;;;;;;5134337;28;19928;-43
2022/02/03 15:19:48;;;;;;;;;;;22.40;44.00;;;;;;5134350;28;20283;-44
2022/02/03 15:22:15;;;;;;;;;;;22.40;44.00;;;;;;5148184;27;19948;-39
2022/02/03 15:24:42;;;;;;;;;;;22.40;44.00;;;;;;5154151;27;19927;-42
2022/02/03 15:27:10;;;;;;;;;;;22.40;44.10;;;;;;5154679;27;19970;-43
2022/02/03 15:29:37;;;;;;;;;;;22.40;44.10;;;;;;5154566;27;20305;-41
2022/02/03 15:32:04;;;;;;;;;;;22.40;44.20;;;;;;5154611;27;19972;-41
2022/02/03 15:34:36;;;;;;;;;;;22.40;44.20;;;;;;5154668;27;19923;-40
2022/02/03 15:37:06;;;;;;;;;;;22.30;44.20;;;;;;5142647;27;19969;-41
2022/02/03 15:39:40;;;;;;;;;;;22.40;44.30;;;;;;5135920;27;19924;-43
2022/02/03 15:42:07;;;;;;;;;;;22.30;44.20;;;;;;5119803;27;19928;-41
2022/02/03 15:44:39;;;;;;;;;;;22.30;44.20;;;;;;5138684;27;20385;-41
2022/02/03 15:47:15;;;;;;;;;;;22.30;44.20;;;;;;5137865;27;20009;-42
2022/02/03 15:58:40;;;;;;;;;;;22.30;44.40;;;;;;5158067;27;19923;-42
2022/02/03 16:16:54;;;;;;;;;;;22.20;44.50;;;;;;5093962;28;19924;-41
2022/02/03 16:19:27;;;;;;;;;;;22.20;44.50;;;;;;5093745;28;19957;-43
2022/02/03 16:22:03;;;;;;;;;;;22.20;44.50;;;;;;5099210;28;19928;-45
2022/02/03 16:54:07;;;;;;;;;;;22.10;44.70;;;;;;5136082;27;19999;-40
2022/02/03 16:56:34;;;;;;;;;;;22.10;44.70;;;;;;5146340;27;19927;-41
2022/02/03 16:59:06;;;;;;;;;;;22.10;44.70;;;;;;5157082;27;19923;-42
2022/02/03 17:01:33;;;;;;;;;;;22.10;44.70;;;;;;5138620;27;19923;-41
2022/02/03 17:04:00;;;;;;;;;;;22.10;44.70;;;;;;5157035;27;19927;-43
2022/02/03 17:06:27;;;;;;;;;;;22.10;44.80;;;;;;5138927;27;19927;-42
2022/02/03 17:08:54;;;;;;;;;;;22.00;44.70;;;;;;5154741;27;19995;-42
2022/02/03 17:11:21;;;;;;;;;;;22.00;44.70;;;;;;5155721;27;19973;-43
2022/02/03 17:13:48;;;;;;;;;;;22.10;44.80;;;;;;5156782;27;19923;-41
2022/02/03 17:16:22;;;;;;;;;;;22.00;44.70;;;;;;5156484;27;20449;-40
2022/02/03 17:18:51;;;;;;;;;;;22.00;44.70;;;;;;5156178;27;20398;-41
2022/02/03 17:21:20;;;;;;;;;;;22.00;44.70;;;;;;5137948;27;19923;-40
2022/02/03 17:23:47;;;;;;;;;;;22.00;44.70;;;;;;5155106;27;20390;-41
2022/02/03 17:26:25;;;;;;;;;;;22.00;44.80;;;;;;5155844;27;19983;-42
2022/02/03 17:29:05;;;;;;;;;;;22.00;44.80;;;;;;5156590;27;19923;-42
2022/02/03 18:45:48;;;;;;;;;;;21.90;45.00;;;;;;5031163;28;20396;-41
2022/02/03 18:52:05;;;;;;;;;;;21.80;44.90;;;;;;4953144;29;20406;-40
2022/02/03 19:02:58;;;;;;;;;;;21.80;45.00;;;;;;4953479;29;19954;-41
2022/02/03 19:14:28;;;;;;;;;;;21.80;45.00;;;;;;5012654;28;20012;-44
2022/02/03 20:04:58;;;;;;;;;;;21.70;45.20;;;;;;5112908;28;19934;-45
2022/02/03 20:07:55;;;;;;;;;;;21.70;45.20;;;;;;5096628;28;20006;-39
2022/02/03 20:10:29;;;;;;;;;;;21.70;45.20;;;;;;5111177;28;19924;-41
2022/02/03 20:12:56;;;;;;;;;;;21.70;45.20;;;;;;5116209;27;19928;-41
2022/02/03 20:15:24;;;;;;;;;;;21.60;45.10;;;;;;5116497;28;19931;-41
2022/02/03 20:17:54;;;;;;;;;;;21.70;45.20;;;;;;5118229;27;19928;-41
2022/02/03 20:20:22;;;;;;;;;;;21.70;45.20;;;;;;5119019;27;19923;-42
2022/02/03 20:22:50;;;;;;;;;;;21.70;45.20;;;;;;5136614;27;20397;-40
2022/02/03 20:25:18;;;;;;;;;;;21.70;45.20;;;;;;5149666;27;19927;-41
2022/02/03 20:27:45;;;;;;;;;;;21.70;45.20;;;;;;5156955;27;19930;-42
2022/02/03 20:30:12;;;;;;;;;;;21.70;45.20;;;;;;5157223;27;19923;-44
2022/02/03 20:32:39;;;;;;;;;;;21.70;45.20;;;;;;5157383;27;19965;-42
2022/02/03 20:35:06;;;;;;;;;;;21.70;45.20;;;;;;5157703;27;19969;-41
2022/02/03 20:37:35;;;;;;;;;;;21.60;45.20;;;;;;5139268;27;19972;-43
2022/02/03 20:40:02;;;;;;;;;;;21.60;45.20;;;;;;5156308;27;19923;-42
2022/02/03 20:42:29;;;;;;;;;;;21.60;45.20;;;;;;5138849;27;19992;-43
2022/02/03 20:44:56;;;;;;;;;;;21.60;45.20;;;;;;5156731;27;20026;-42
2022/02/03 20:47:25;;;;;;;;;;;21.60;45.20;;;;;;5157128;27;19958;-42
2022/02/03 20:49:52;;;;;;;;;;;21.60;45.20;;;;;;5157122;27;20017;-44
2022/02/03 20:52:19;;;;;;;;;;;21.60;45.20;;;;;;5156729;27;20374;-41
2022/02/03 20:54:46;;;;;;;;;;;21.60;45.20;;;;;;5156124;27;20017;-41
2022/02/03 20:57:14;;;;;;;;;;;21.60;45.20;;;;;;5156911;27;19952;-41
2022/02/03 20:59:57;;;;;;;;;;;21.60;45.20;;;;;;5156082;27;20019;-43
2022/02/03 21:02:37;;;;;;;;;;;21.60;45.20;;;;;;5156793;27;20492;-44
2022/02/03 21:05:12;;;;;;;;;;;21.60;45.20;;;;;;5150464;27;19993;-43
2022/02/03 21:07:42;;;;;;;;;;;21.60;45.20;;;;;;5136336;27;19923;-43
2022/02/03 21:10:12;;;;;;;;;;;21.60;45.20;;;;;;5143937;27;19974;-42
2022/02/03 21:12:39;;;;;;;;;;;21.60;45.20;;;;;;5156915;27;20297;-41
2022/02/03 21:15:07;;;;;;;;;;;21.60;45.20;;;;;;5155840;27;20410;-45
2022/02/03 21:17:35;;;;;;;;;;;21.60;45.20;;;;;;5156850;27;20301;-42
2022/02/03 21:20:13;;;;;;;;;;;21.60;45.20;;;;;;5156523;27;19923;-43
2022/02/03 21:22:41;;;;;;;;;;;21.60;45.20;;;;;;5156601;27;19972;-43
2022/02/03 21:25:22;;;;;;;;;;;21.60;45.30;;;;;;5155172;27;19923;-43
2022/02/03 21:27:52;;;;;;;;;;;21.50;45.20;;;;;;5156335;27;20022;-42
2022/02/03 21:30:20;;;;;;;;;;;21.50;45.20;;;;;;5139465;27;19923;-44
2022/02/03 21:32:48;;;;;;;;;;;21.50;45.20;;;;;;5135773;27;19923;-41
2022/02/03 21:35:16;;;;;;;;;;;21.50;45.20;;;;;;5135471;27;19927;-40
2022/02/03 21:37:43;;;;;;;;;;;21.50;45.20;;;;;;5134394;27;20446;-45
2022/02/03 21:40:10;;;;;;;;;;;21.50;45.30;;;;;;5140806;27;20014;-44
2022/02/03 21:42:37;;;;;;;;;;;21.50;45.30;;;;;;5156234;27;19949;-47
2022/02/03 21:45:05;;;;;;;;;;;21.50;45.30;;;;;;5155289;27;19923;-42
2022/02/03 21:47:32;;;;;;;;;;;21.50;45.30;;;;;;5155928;27;19923;-42
2022/02/03 21:49:59;;;;;;;;;;;21.50;45.30;;;;;;5156168;27;19926;-45
2022/02/03 21:52:35;;;;;;;;;;;21.50;45.30;;;;;;5155848;27;19982;-40
2022/02/03 21:55:04;;;;;;;;;;;21.50;45.30;;;;;;5154608;27;19927;-41
2022/02/03 21:57:32;;;;;;;;;;;21.50;45.30;;;;;;5156313;27;19949;-40
2022/02/03 22:00:00;;;;;;;;;;;21.50;45.30;;;;;;5155209;27;19973;-39
2022/02/03 22:02:27;;;;;;;;;;;21.50;45.30;;;;;;5155902;27;19973;-41
2022/02/03 22:04:55;;;;;;;;;;;21.50;45.30;;;;;;5151262;27;20027;-40
2022/02/03 22:07:22;;;;;;;;;;;21.50;45.30;;;;;;5135209;27;19927;-40
2022/02/03 22:09:49;;;;;;;;;;;21.50;45.30;;;;;;5135301;27;20391;-39
2022/02/03 22:12:16;;;;;;;;;;;21.50;45.30;;;;;;5155642;27;19923;-40
2022/02/03 22:14:43;;;;;;;;;;;21.50;45.40;;;;;;5155011;27;19923;-40
2022/02/03 22:17:10;;;;;;;;;;;21.40;45.30;;;;;;5155427;27;19923;-41
2022/02/03 22:19:42;;;;;;;;;;;21.50;45.40;;;;;;5133457;27;20294;-41
2022/02/03 22:24:49;;;;;;;;;;;21.40;45.30;;;;;;5136003;27;19927;-42
2022/02/03 22:42:21;;;;;;;;;;;21.40;45.40;;;;;;5070789;28;19935;-43
2022/02/03 22:43:59;;;;;;;;;;;21.40;45.40;;;;;;5070099;28;19975;-42
2022/02/03 22:49:03;;;;;;;;;;;21.40;45.40;;;;;;5074278;28;19974;-43
2022/02/03 22:51:34;;;;;;;;;;;21.40;45.40;;;;;;5075133;28;19979;-42
2022/02/03 22:54:01;;;;;;;;;;;21.40;45.40;;;;;;5075363;28;20350;-39
2022/02/03 22:56:28;;;;;;;;;;;21.40;45.40;;;;;;5074514;28;19974;-41
2022/02/03 23:01:42;;;;;;;;;;;21.40;45.40;;;;;;5074445;28;20289;-42
2022/02/03 23:04:09;;;;;;;;;;;21.40;45.40;;;;;;5075156;28;20009;-43
2022/02/03 23:06:36;;;;;;;;;;;21.40;45.40;;;;;;5075228;28;20015;-41
2022/02/03 23:09:15;;;;;;;;;;;21.40;45.40;;;;;;5075255;28;19925;-41
2022/02/03 23:22:13;;;;;;;;;;;21.30;45.40;;;;;;5158946;27;19926;-40
2022/02/03 23:24:46;;;;;;;;;;;21.30;45.40;;;;;;5158963;27;20298;-42
2022/02/03 23:29:59;;;;;;;;;;;21.30;45.40;;;;;;5157937;27;19973;-40
2022/02/03 23:32:28;;;;;;;;;;;21.30;45.40;;;;;;5158529;27;19974;-42
2022/02/03 23:38:05;;;;;;;;;;;21.30;45.40;;;;;;5146282;27;19923;-43
2022/02/03 23:49:40;;;;;;;;;;;21.30;45.40;;;;;;5158318;27;19923;-40
